Time;durP1;ratioP1;P1;durP2;ratioP2;P2;SDS_P1;SDS_P2;PMS_P1;PMS_P2;Temp;Humidity;BMP_temperature;BMP_pressure;BME280_temperature;BME280_humidity;BME280_pressure;Samples;Min_cycle;Max_cycle;Signal;HPM_P1;HPM_P2
2022/05/06 00:01:40;;;;;;;3.10;2.35;;;;;;;;;;5022939;28;20471;-53
2022/05/06 00:04:06;;;;;;;3.53;2.90;;;;;;;;;;5024975;28;20088;-54
2022/05/06 00:06:33;;;;;;;3.45;2.50;;;;;;;;;;5028841;28;20060;-53
2022/05/06 00:08:59;;;;;;;4.68;2.20;;;;;;;;;;5024777;28;20379;-52
2022/05/06 00:11:25;;;;;;;3.08;2.30;;;;;;;;;;5024391;28;20049;-54
2022/05/06 00:13:55;;;;;;;3.17;2.47;;;;;;;;;;5035390;28;20030;-52
2022/05/06 00:16:21;;;;;;;4.40;2.50;;;;;;;;;;5033649;28;20029;-54
2022/05/06 00:18:47;;;;;;;3.00;2.30;;;;;;;;;;5020425;28;20053;-53
2022/05/06 00:21:13;;;;;;;3.72;2.28;;;;;;;;;;5034996;28;20494;-50
2022/05/06 00:23:40;;;;;;;3.95;2.90;;;;;;;;;;5035217;28;20036;-50
2022/05/06 00:26:06;;;;;;;4.82;2.80;;;;;;;;;;5033183;28;20558;-51
2022/05/06 00:28:32;;;;;;;4.45;2.50;;;;;;;;;;5034025;28;20030;-49
2022/05/06 00:30:58;;;;;;;3.35;2.60;;;;;;;;;;5031776;28;20040;-49
2022/05/06 00:33:24;;;;;;;2.30;1.98;;;;;;;;;;5026208;28;20045;-51
2022/05/06 00:35:54;;;;;;;4.53;2.40;;;;;;;;;;5025329;28;20018;-49
2022/05/06 00:38:20;;;;;;;2.95;2.10;;;;;;;;;;5022567;28;20042;-57
2022/05/06 00:40:46;;;;;;;2.97;2.42;;;;;;;;;;5024780;28;20061;-50
2022/05/06 00:43:12;;;;;;;3.40;2.47;;;;;;;;;;5035083;28;20126;-50
2022/05/06 00:45:54;;;;;;;3.10;2.35;;;;;;;;;;5033451;28;20022;-48
2022/05/06 00:48:23;;;;;;;3.95;2.30;;;;;;;;;;5032476;28;20129;-51
2022/05/06 00:50:49;;;;;;;3.42;2.50;;;;;;;;;;5033229;28;20033;-53
2022/05/06 00:53:15;;;;;;;4.50;2.42;;;;;;;;;;5034643;28;20429;-48
2022/05/06 00:55:42;;;;;;;3.75;2.60;;;;;;;;;;5033992;28;20045;-48
2022/05/06 00:58:08;;;;;;;3.83;2.50;;;;;;;;;;5031439;28;20013;-49
2022/05/06 01:00:34;;;;;;;2.92;2.47;;;;;;;;;;5033223;28;20036;-51
2022/05/06 01:03:00;;;;;;;2.90;2.47;;;;;;;;;;5034018;28;20034;-57
2022/05/06 01:05:26;;;;;;;2.58;2.00;;;;;;;;;;5033163;28;20051;-50
2022/05/06 01:07:53;;;;;;;3.65;2.28;;;;;;;;;;5032266;28;20022;-48
2022/05/06 01:10:19;;;;;;;3.90;2.50;;;;;;;;;;5034146;28;20030;-50
2022/05/06 01:12:47;;;;;;;3.55;2.35;;;;;;;;;;5033105;28;20037;-49
2022/05/06 01:15:19;;;;;;;3.05;2.50;;;;;;;;;;5030064;28;20101;-51
2022/05/06 01:17:46;;;;;;;3.53;2.53;;;;;;;;;;5034545;28;20021;-50
2022/05/06 01:20:15;;;;;;;4.07;2.30;;;;;;;;;;5033620;28;20059;-51
2022/05/06 01:22:41;;;;;;;4.00;2.78;;;;;;;;;;5032847;28;20038;-51
2022/05/06 01:25:08;;;;;;;2.75;2.20;;;;;;;;;;5032944;28;20401;-49
2022/05/06 01:27:35;;;;;;;2.45;1.95;;;;;;;;;;5034472;28;20022;-48
2022/05/06 01:30:02;;;;;;;2.67;2.22;;;;;;;;;;5031938;28;20370;-58
2022/05/06 01:32:28;;;;;;;3.08;2.33;;;;;;;;;;5031337;28;20060;-50
2022/05/06 01:34:55;;;;;;;5.63;2.85;;;;;;;;;;5033963;28;20026;-50
2022/05/06 01:37:22;;;;;;;3.10;2.25;;;;;;;;;;5033334;28;20028;-48
2022/05/06 01:39:52;;;;;;;3.20;2.20;;;;;;;;;;5031237;28;20056;-52
2022/05/06 01:42:21;;;;;;;3.55;2.42;;;;;;;;;;5034473;28;20117;-52
2022/05/06 01:44:48;;;;;;;4.18;2.50;;;;;;;;;;5033042;28;20152;-51
2022/05/06 01:47:19;;;;;;;2.80;1.90;;;;;;;;;;5030868;28;20072;-51
2022/05/06 01:49:46;;;;;;;3.90;2.35;;;;;;;;;;5033847;28;20025;-50
2022/05/06 01:52:15;;;;;;;3.40;2.78;;;;;;;;;;5033058;28;20504;-49
2022/05/06 01:54:41;;;;;;;2.60;2.25;;;;;;;;;;5032569;28;20028;-50
2022/05/06 01:57:07;;;;;;;3.13;2.10;;;;;;;;;;5031121;28;20026;-49
2022/05/06 01:59:33;;;;;;;2.60;2.15;;;;;;;;;;5033676;28;20378;-50
2022/05/06 02:01:59;;;;;;;2.58;2.33;;;;;;;;;;5032234;28;20037;-59
2022/05/06 02:07:10;;;;;;;2.72;2.35;;;;;;;;;;5033599;28;20075;-52
2022/05/06 02:09:36;;;;;;;2.30;2.10;;;;;;;;;;5031855;28;20029;-51
2022/05/06 02:12:02;;;;;;;2.65;2.40;;;;;;;;;;5031557;28;20516;-50
2022/05/06 02:14:28;;;;;;;3.22;2.28;;;;;;;;;;5033022;28;20026;-50
2022/05/06 02:16:54;;;;;;;8.50;2.55;;;;;;;;;;5031922;28;20038;-50
2022/05/06 02:19:20;;;;;;;2.92;2.08;;;;;;;;;;5029186;28;20017;-50
2022/05/06 02:21:46;;;;;;;3.30;2.20;;;;;;;;;;5033078;28;20033;-50
2022/05/06 02:24:12;;;;;;;3.97;2.80;;;;;;;;;;5032934;28;20036;-51
2022/05/06 02:26:38;;;;;;;3.67;2.47;;;;;;;;;;5031867;28;20062;-48
2022/05/06 02:29:05;;;;;;;3.42;2.40;;;;;;;;;;5031874;28;20101;-50
2022/05/06 02:34:17;;;;;;;3.13;2.30;;;;;;;;;;5030575;28;20056;-48
2022/05/06 02:36:44;;;;;;;4.15;2.30;;;;;;;;;;5033448;28;20045;-51
2022/05/06 02:39:10;;;;;;;4.38;2.53;;;;;;;;;;5031696;28;20080;-53
2022/05/06 02:41:36;;;;;;;4.50;2.95;;;;;;;;;;5030802;28;20390;-50
2022/05/06 02:44:04;;;;;;;3.13;2.20;;;;;;;;;;5031867;28;20097;-50
2022/05/06 02:46:30;;;;;;;3.20;2.42;;;;;;;;;;5035259;28;20025;-50
2022/05/06 02:48:56;;;;;;;3.25;2.13;;;;;;;;;;5037381;28;20500;-51
2022/05/06 02:51:22;;;;;;;3.15;2.50;;;;;;;;;;5033322;28;20044;-53
2022/05/06 02:53:48;;;;;;;2.90;2.35;;;;;;;;;;5022430;28;20044;-52
2022/05/06 02:56:14;;;;;;;2.80;2.38;;;;;;;;;;5017570;28;20030;-50
2022/05/06 02:58:40;;;;;;;2.55;2.15;;;;;;;;;;5034867;28;20075;-50
2022/05/06 03:01:06;;;;;;;3.28;2.20;;;;;;;;;;5034702;28;20041;-50
2022/05/06 03:03:33;;;;;;;2.67;2.20;;;;;;;;;;5036809;28;20030;-50
2022/05/06 03:06:00;;;;;;;4.95;3.42;;;;;;;;;;5036217;28;20029;-48
2022/05/06 03:08:26;;;;;;;3.60;2.85;;;;;;;;;;5033591;28;20017;-51
2022/05/06 03:10:52;;;;;;;3.50;2.67;;;;;;;;;;5036769;28;20064;-50
2022/05/06 03:13:18;;;;;;;2.63;2.15;;;;;;;;;;5036235;28;20029;-49
2022/05/06 03:15:45;;;;;;;2.70;2.40;;;;;;;;;;5035486;28;20030;-49
2022/05/06 03:18:11;;;;;;;5.38;2.60;;;;;;;;;;5035059;28;20030;-53
2022/05/06 03:20:38;;;;;;;5.88;2.80;;;;;;;;;;5033956;28;20066;-49
2022/05/06 03:23:04;;;;;;;5.13;2.60;;;;;;;;;;5036877;28;20064;-56
2022/05/06 03:25:30;;;;;;;3.40;1.95;;;;;;;;;;5035738;28;20030;-51
2022/05/06 03:28:00;;;;;;;3.67;2.58;;;;;;;;;;5035456;28;20026;-50
2022/05/06 03:30:26;;;;;;;4.05;2.20;;;;;;;;;;5034767;28;20032;-50
2022/05/06 03:32:55;;;;;;;3.00;2.20;;;;;;;;;;5036559;28;20382;-53
2022/05/06 03:35:22;;;;;;;3.53;2.70;;;;;;;;;;5034118;28;20372;-51
2022/05/06 03:37:48;;;;;;;3.33;2.13;;;;;;;;;;5033537;28;20021;-50
2022/05/06 03:40:17;;;;;;;4.22;2.30;;;;;;;;;;5034752;28;20544;-53
2022/05/06 03:42:43;;;;;;;3.10;2.55;;;;;;;;;;5035596;28;20426;-54
2022/05/06 03:45:09;;;;;;;2.45;2.05;;;;;;;;;;5032713;28;20083;-53
2022/05/06 03:47:35;;;;;;;3.40;2.35;;;;;;;;;;5036384;28;20030;-49
2022/05/06 03:52:48;;;;;;;3.60;2.40;;;;;;;;;;5030671;28;20520;-50
2022/05/06 03:55:14;;;;;;;2.13;1.83;;;;;;;;;;5014960;28;20080;-51
2022/05/06 03:57:42;;;;;;;4.15;3.05;;;;;;;;;;5017170;28;20045;-49
2022/05/06 04:00:09;;;;;;;2.38;1.90;;;;;;;;;;5035682;28;20106;-52
2022/05/06 04:02:39;;;;;;;2.45;2.10;;;;;;;;;;5034871;28;20037;-54
2022/05/06 04:05:05;;;;;;;2.30;1.95;;;;;;;;;;5035816;28;20108;-54
2022/05/06 04:07:31;;;;;;;2.95;2.10;;;;;;;;;;5035608;28;20057;-50
2022/05/06 04:09:57;;;;;;;2.55;2.35;;;;;;;;;;5033591;28;20075;-52
2022/05/06 04:12:23;;;;;;;4.13;3.05;;;;;;;;;;5033488;28;20033;-49
2022/05/06 04:14:52;;;;;;;2.47;2.13;;;;;;;;;;5035302;28;20068;-49
2022/05/06 04:17:20;;;;;;;2.58;2.05;;;;;;;;;;5033496;28;20025;-49
2022/05/06 04:25:16;;;;;;;3.53;2.25;;;;;;;;;;5032207;28;20043;-52
2022/05/06 04:27:43;;;;;;;2.60;2.17;;;;;;;;;;5035662;28;20022;-49
2022/05/06 04:30:09;;;;;;;3.50;2.30;;;;;;;;;;5034921;28;20030;-60
2022/05/06 04:32:35;;;;;;;3.45;2.30;;;;;;;;;;5032484;28;20049;-58
2022/05/06 04:35:04;;;;;;;2.65;1.85;;;;;;;;;;5034903;28;20084;-49
2022/05/06 04:37:30;;;;;;;2.47;2.28;;;;;;;;;;5035406;28;20020;-50
2022/05/06 04:39:57;;;;;;;3.00;2.10;;;;;;;;;;5033461;28;20072;-48
2022/05/06 04:42:23;;;;;;;3.97;2.88;;;;;;;;;;5032282;28;20033;-50
2022/05/06 04:44:49;;;;;;;2.10;1.90;;;;;;;;;;5035854;28;20374;-49
2022/05/06 04:47:15;;;;;;;4.30;2.47;;;;;;;;;;5034391;28;20033;-53
2022/05/06 04:49:41;;;;;;;2.70;1.80;;;;;;;;;;5034678;28;20487;-49
2022/05/06 04:52:07;;;;;;;2.70;2.00;;;;;;;;;;5034338;28;20026;-50
2022/05/06 04:54:33;;;;;;;3.05;2.55;;;;;;;;;;5031732;28;20390;-52
2022/05/06 04:56:59;;;;;;;2.33;1.83;;;;;;;;;;5035001;28;20021;-50
2022/05/06 04:59:25;;;;;;;2.85;2.58;;;;;;;;;;5033666;28;20536;-53
2022/05/06 05:01:51;;;;;;;2.45;2.20;;;;;;;;;;5032652;28;20045;-54
2022/05/06 05:04:17;;;;;;;2.38;1.98;;;;;;;;;;5030404;28;20070;-50
2022/05/06 05:06:43;;;;;;;3.28;2.05;;;;;;;;;;5034551;28;20026;-51
2022/05/06 05:09:10;;;;;;;2.58;2.05;;;;;;;;;;5033460;28;20025;-60
2022/05/06 05:11:36;;;;;;;2.95;2.08;;;;;;;;;;5022534;28;20025;-51
2022/05/06 05:14:06;;;;;;;2.33;2.13;;;;;;;;;;5026578;28;20095;-49
2022/05/06 05:16:32;;;;;;;2.25;1.77;;;;;;;;;;5034825;28;20416;-51
2022/05/06 05:18:58;;;;;;;2.50;2.08;;;;;;;;;;5032058;28;20048;-52
2022/05/06 05:21:24;;;;;;;2.53;2.00;;;;;;;;;;5034270;28;20462;-54
2022/05/06 05:23:50;;;;;;;4.40;2.33;;;;;;;;;;5031926;28;20030;-50
2022/05/06 05:26:16;;;;;;;3.33;1.85;;;;;;;;;;5020211;28;20474;-48
2022/05/06 05:28:42;;;;;;;1.80;1.67;;;;;;;;;;5027670;28;20104;-50
2022/05/06 05:31:08;;;;;;;2.53;2.03;;;;;;;;;;5024951;28;20364;-51
2022/05/06 05:33:34;;;;;;;2.30;1.85;;;;;;;;;;5023940;28;20029;-54
2022/05/06 05:36:00;;;;;;;3.90;2.22;;;;;;;;;;5023957;28;20425;-52
2022/05/06 05:38:26;;;;;;;2.20;2.00;;;;;;;;;;5025754;28;20050;-48
2022/05/06 05:40:52;;;;;;;3.55;2.00;;;;;;;;;;5033713;28;20065;-51
2022/05/06 05:48:47;;;;;;;4.40;2.47;;;;;;;;;;5027885;28;20029;-54
2022/05/06 05:51:13;;;;;;;4.78;2.20;;;;;;;;;;5017603;28;20055;-59
2022/05/06 05:53:39;;;;;;;5.05;2.20;;;;;;;;;;5023254;28;20477;-55
2022/05/06 05:56:05;;;;;;;2.95;2.10;;;;;;;;;;5027347;28;20037;-56
2022/05/06 05:58:33;;;;;;;4.70;2.88;;;;;;;;;;5033756;28;20040;-51
2022/05/06 06:00:59;;;;;;;8.80;2.10;;;;;;;;;;5032854;28;20030;-51
2022/05/06 06:03:25;;;;;;;6.68;2.63;;;;;;;;;;5031505;28;20033;-52
2022/05/06 06:05:51;;;;;;;3.88;2.08;;;;;;;;;;5031093;28;20025;-53
2022/05/06 06:08:18;;;;;;;5.93;2.22;;;;;;;;;;5031112;28;20071;-51
2022/05/06 06:10:44;;;;;;;3.47;2.10;;;;;;;;;;5032544;28;20359;-50
2022/05/06 06:13:10;;;;;;;5.13;2.58;;;;;;;;;;5032216;28;20029;-48
2022/05/06 06:15:36;;;;;;;3.78;2.22;;;;;;;;;;5031428;28;20185;-54
2022/05/06 06:18:02;;;;;;;5.55;2.25;;;;;;;;;;5031897;28;20060;-51
2022/05/06 06:20:29;;;;;;;5.68;2.42;;;;;;;;;;5031477;28;20021;-51
2022/05/06 06:22:55;;;;;;;5.47;2.85;;;;;;;;;;5026650;28;20029;-50
2022/05/06 06:25:21;;;;;;;6.15;3.03;;;;;;;;;;5031854;28;20024;-55
2022/05/06 06:27:47;;;;;;;6.00;2.30;;;;;;;;;;5032387;28;20500;-54
2022/05/06 06:30:13;;;;;;;5.70;2.45;;;;;;;;;;5031388;28;20028;-54
2022/05/06 06:32:39;;;;;;;4.07;2.13;;;;;;;;;;5030970;28;20087;-52
2022/05/06 06:35:05;;;;;;;2.67;1.75;;;;;;;;;;5032370;28;20459;-51
2022/05/06 06:37:32;;;;;;;4.95;2.30;;;;;;;;;;5030339;28;20036;-52
2022/05/06 06:39:58;;;;;;;3.33;1.98;;;;;;;;;;5031019;28;20064;-52
2022/05/06 06:42:25;;;;;;;4.40;2.05;;;;;;;;;;5026449;28;20045;-51
2022/05/06 06:44:51;;;;;;;3.60;1.88;;;;;;;;;;5031823;28;20370;-51
2022/05/06 06:47:17;;;;;;;4.28;2.17;;;;;;;;;;5030780;28;20030;-59
2022/05/06 06:49:45;;;;;;;3.35;2.20;;;;;;;;;;5031763;28;20026;-53
2022/05/06 06:52:11;;;;;;;3.35;1.98;;;;;;;;;;5031332;28;20108;-53
2022/05/06 06:54:37;;;;;;;7.57;2.95;;;;;;;;;;5011247;28;20570;-51
2022/05/06 06:57:03;;;;;;;4.40;2.50;;;;;;;;;;5029856;28;20056;-50
2022/05/06 06:59:29;;;;;;;5.13;2.15;;;;;;;;;;5030583;28;20029;-53
2022/05/06 07:01:55;;;;;;;7.43;2.47;;;;;;;;;;5031567;28;20117;-50
2022/05/06 07:04:21;;;;;;;6.70;2.50;;;;;;;;;;5031106;28;20025;-49
2022/05/06 07:12:16;;;;;;;2.97;2.03;;;;;;;;;;5031526;28;20415;-55
2022/05/06 07:14:42;;;;;;;3.83;2.05;;;;;;;;;;5030966;28;20025;-52
2022/05/06 07:17:08;;;;;;;5.60;2.22;;;;;;;;;;5030916;28;20029;-51
2022/05/06 07:19:34;;;;;;;6.50;2.55;;;;;;;;;;5030727;28;20025;-50
2022/05/06 07:22:00;;;;;;;4.15;1.95;;;;;;;;;;5031101;28;20496;-52
2022/05/06 07:24:26;;;;;;;2.30;1.90;;;;;;;;;;5030450;28;20030;-50
2022/05/06 07:26:53;;;;;;;2.60;2.03;;;;;;;;;;5029656;28;20026;-56
2022/05/06 07:29:20;;;;;;;2.83;2.00;;;;;;;;;;5030621;28;20478;-57
2022/05/06 07:31:46;;;;;;;3.17;1.98;;;;;;;;;;5031696;28;20037;-54
2022/05/06 07:34:13;;;;;;;3.00;1.83;;;;;;;;;;5034693;28;20032;-52
2022/05/06 07:36:42;;;;;;;2.83;2.00;;;;;;;;;;5034259;28;20052;-57
2022/05/06 07:39:09;;;;;;;2.75;2.10;;;;;;;;;;5024298;28;20049;-53
2022/05/06 07:41:35;;;;;;;2.35;1.80;;;;;;;;;;5034343;28;20116;-52
2022/05/06 07:44:01;;;;;;;2.67;1.95;;;;;;;;;;5034898;28;20022;-52
2022/05/06 07:46:28;;;;;;;2.40;2.20;;;;;;;;;;5034428;28;20032;-53
2022/05/06 07:48:54;;;;;;;2.17;1.85;;;;;;;;;;5034226;28;20088;-52
2022/05/06 07:51:20;;;;;;;3.95;1.90;;;;;;;;;;5034571;28;20022;-58
2022/05/06 07:53:47;;;;;;;2.15;1.65;;;;;;;;;;5020835;28;20076;-52
2022/05/06 07:56:13;;;;;;;3.20;2.08;;;;;;;;;;5023046;28;20025;-53
2022/05/06 07:58:39;;;;;;;3.03;1.63;;;;;;;;;;5033376;28;20030;-54
2022/05/06 08:01:05;;;;;;;3.72;1.88;;;;;;;;;;5033259;28;20022;-54
2022/05/06 08:06:16;;;;;;;2.53;1.80;;;;;;;;;;5034209;28;20116;-55
2022/05/06 08:08:42;;;;;;;3.20;2.15;;;;;;;;;;5032674;28;20049;-53
2022/05/06 08:11:08;;;;;;;3.65;1.60;;;;;;;;;;5034135;28;20448;-52
2022/05/06 08:13:34;;;;;;;2.20;2.00;;;;;;;;;;5033318;28;20022;-52
2022/05/06 08:16:00;;;;;;;3.88;2.28;;;;;;;;;;5034498;28;20047;-50
2022/05/06 08:18:27;;;;;;;2.35;1.90;;;;;;;;;;5033062;28;20025;-53
2022/05/06 08:20:53;;;;;;;2.25;1.67;;;;;;;;;;5034418;28;20025;-49
2022/05/06 08:23:21;;;;;;;2.20;1.85;;;;;;;;;;5033428;28;20467;-59
2022/05/06 08:25:47;;;;;;;3.83;1.65;;;;;;;;;;5033355;28;20067;-52
2022/05/06 08:28:14;;;;;;;2.28;1.67;;;;;;;;;;5033729;28;20021;-54
2022/05/06 08:30:40;;;;;;;1.90;1.70;;;;;;;;;;5033176;28;20049;-50
2022/05/06 08:33:06;;;;;;;4.45;1.67;;;;;;;;;;5033828;28;20381;-49
2022/05/06 08:35:32;;;;;;;5.15;2.08;;;;;;;;;;5033179;28;20029;-50
2022/05/06 08:37:59;;;;;;;2.60;1.50;;;;;;;;;;5033783;28;20021;-53
2022/05/06 08:40:31;;;;;;;2.35;1.88;;;;;;;;;;5032449;28;20033;-50
2022/05/06 08:42:58;;;;;;;2.10;1.90;;;;;;;;;;5033162;28;20141;-51
2022/05/06 08:50:55;;;;;;;2.03;1.75;;;;;;;;;;5033738;28;20497;-51
2022/05/06 08:53:29;;;;;;;2.17;1.77;;;;;;;;;;5025668;28;20026;-57
2022/05/06 08:55:55;;;;;;;3.78;1.60;;;;;;;;;;5016827;28;20050;-54
2022/05/06 08:58:22;;;;;;;2.00;1.58;;;;;;;;;;5032646;28;20379;-58
2022/05/06 09:00:48;;;;;;;3.70;1.73;;;;;;;;;;5033162;28;20040;-50
2022/05/06 09:03:15;;;;;;;1.98;1.55;;;;;;;;;;5032719;28;20033;-51
2022/05/06 09:05:54;;;;;;;2.58;2.00;;;;;;;;;;5032433;28;20021;-50
2022/05/06 09:08:20;;;;;;;3.20;1.63;;;;;;;;;;5032754;28;20030;-58
2022/05/06 09:11:13;;;;;;;2.72;1.90;;;;;;;;;;5031776;28;20021;-51
2022/05/06 09:13:40;;;;;;;2.70;1.60;;;;;;;;;;5029698;28;20041;-49
2022/05/06 09:19:09;;;;;;;1.80;1.55;;;;;;;;;;5013235;28;20045;-53
2022/05/06 09:21:36;;;;;;;1.92;1.60;;;;;;;;;;5012234;28;20060;-51
2022/05/06 09:24:18;;;;;;;2.85;1.58;;;;;;;;;;5012897;28;20026;-52
2022/05/06 09:27:05;;;;;;;2.95;1.70;;;;;;;;;;5021553;28;20028;-52
2022/05/06 09:29:42;;;;;;;1.67;1.50;;;;;;;;;;5031813;28;20048;-53
2022/05/06 09:32:17;;;;;;;3.60;1.50;;;;;;;;;;5032986;28;20034;-54
2022/05/06 09:34:44;;;;;;;2.15;1.20;;;;;;;;;;5031850;28;20048;-54
2022/05/06 09:37:10;;;;;;;1.50;1.27;;;;;;;;;;5032638;28;20484;-51
2022/05/06 09:39:40;;;;;;;3.80;1.50;;;;;;;;;;5031245;28;20048;-53
2022/05/06 09:42:07;;;;;;;2.08;1.80;;;;;;;;;;5032390;28;20041;-53
2022/05/06 09:44:33;;;;;;;3.13;1.58;;;;;;;;;;5031659;28;20018;-52
2022/05/06 09:47:11;;;;;;;2.65;1.73;;;;;;;;;;5032427;28;20021;-54
2022/05/06 09:49:40;;;;;;;3.10;1.70;;;;;;;;;;5031502;28;20018;-53
2022/05/06 09:52:13;;;;;;;2.08;1.40;;;;;;;;;;5032524;28;20100;-53
2022/05/06 09:54:43;;;;;;;1.80;1.60;;;;;;;;;;5011466;28;20034;-52
2022/05/06 09:57:12;;;;;;;2.88;1.80;;;;;;;;;;5022720;28;20025;-49
2022/05/06 09:59:39;;;;;;;2.22;1.67;;;;;;;;;;5030000;28;20390;-53
2022/05/06 10:02:06;;;;;;;2.05;1.60;;;;;;;;;;5031977;28;20106;-50
2022/05/06 10:04:32;;;;;;;3.15;1.60;;;;;;;;;;5031533;28;20105;-53
2022/05/06 10:07:00;;;;;;;3.17;1.60;;;;;;;;;;5032008;28;20026;-50
2022/05/06 10:09:26;;;;;;;1.70;1.48;;;;;;;;;;5030644;28;20061;-53
2022/05/06 10:11:53;;;;;;;2.80;1.50;;;;;;;;;;5032396;28;20064;-52
2022/05/06 10:14:19;;;;;;;3.47;1.50;;;;;;;;;;5032128;28;20021;-52
2022/05/06 10:16:47;;;;;;;2.17;1.98;;;;;;;;;;5031275;28;20083;-52
2022/05/06 10:19:45;;;;;;;2.60;1.33;;;;;;;;;;5032169;28;20021;-50
2022/05/06 10:22:11;;;;;;;1.50;1.40;;;;;;;;;;5032100;28;20039;-53
2022/05/06 10:24:50;;;;;;;2.33;1.67;;;;;;;;;;5030622;28;20053;-53
2022/05/06 10:27:23;;;;;;;3.58;2.00;;;;;;;;;;5031587;28;20373;-52
2022/05/06 10:32:53;;;;;;;2.08;1.50;;;;;;;;;;5031014;28;20041;-54
2022/05/06 10:35:20;;;;;;;1.67;1.35;;;;;;;;;;5032057;28;20054;-52
2022/05/06 10:37:47;;;;;;;2.58;1.58;;;;;;;;;;5031148;28;20064;-53
2022/05/06 10:40:25;;;;;;;3.13;1.75;;;;;;;;;;5030926;28;20054;-50
2022/05/06 10:42:52;;;;;;;2.65;1.60;;;;;;;;;;5031572;28;20521;-54
2022/05/06 10:45:24;;;;;;;1.70;1.40;;;;;;;;;;5032064;28;20029;-52
2022/05/06 10:47:51;;;;;;;2.30;1.75;;;;;;;;;;5031655;28;20028;-51
2022/05/06 10:50:19;;;;;;;1.88;1.60;;;;;;;;;;5031649;28;20412;-49
2022/05/06 10:52:45;;;;;;;2.58;1.52;;;;;;;;;;5030744;28;20030;-50
2022/05/06 10:55:13;;;;;;;4.32;1.80;;;;;;;;;;5031566;28;20480;-50
2022/05/06 10:57:44;;;;;;;3.78;1.67;;;;;;;;;;5029956;28;20048;-51
2022/05/06 11:00:11;;;;;;;2.90;1.77;;;;;;;;;;5031636;28;20026;-51
2022/05/06 11:02:38;;;;;;;5.43;1.77;;;;;;;;;;5030513;28;20037;-49
2022/05/06 11:05:04;;;;;;;2.90;2.03;;;;;;;;;;5031268;28;20029;-49
2022/05/06 11:07:31;;;;;;;1.83;1.70;;;;;;;;;;5031897;28;20021;-49
2022/05/06 11:09:58;;;;;;;5.97;2.20;;;;;;;;;;5035260;28;20030;-54
2022/05/06 11:12:30;;;;;;;5.15;1.85;;;;;;;;;;5034154;28;20040;-56
2022/05/06 11:14:57;;;;;;;2.50;2.20;;;;;;;;;;5035213;28;20022;-49
2022/05/06 11:17:24;;;;;;;4.20;1.90;;;;;;;;;;5034381;28;20038;-58
2022/05/06 11:19:50;;;;;;;2.40;2.08;;;;;;;;;;5035221;28;20030;-53
2022/05/06 11:22:17;;;;;;;2.95;2.65;;;;;;;;;;5030868;28;20037;-57
2022/05/06 11:24:46;;;;;;;5.97;2.88;;;;;;;;;;5034211;28;20022;-51
2022/05/06 11:27:19;;;;;;;2.47;1.98;;;;;;;;;;5034319;28;20033;-53
2022/05/06 11:29:58;;;;;;;3.03;2.25;;;;;;;;;;5034330;28;20034;-51
2022/05/06 11:32:25;;;;;;;2.63;2.03;;;;;;;;;;5033743;28;20516;-58
2022/05/06 11:34:57;;;;;;;4.57;2.53;;;;;;;;;;5034745;28;20470;-53
2022/05/06 11:37:25;;;;;;;3.28;2.47;;;;;;;;;;5033393;28;20080;-63
2022/05/06 11:39:52;;;;;;;3.50;2.40;;;;;;;;;;5036134;28;20057;-51
2022/05/06 11:42:26;;;;;;;3.97;2.30;;;;;;;;;;5034371;28;20486;-52
2022/05/06 11:47:44;;;;;;;8.40;3.08;;;;;;;;;;5033527;28;20040;-50
2022/05/06 11:50:10;;;;;;;2.78;2.30;;;;;;;;;;5023800;28;20021;-50
2022/05/06 11:52:37;;;;;;;3.42;2.53;;;;;;;;;;5030775;28;20034;-52
2022/05/06 11:55:04;;;;;;;4.03;3.03;;;;;;;;;;5015334;28;20033;-52
2022/05/06 11:57:30;;;;;;;2.92;2.42;;;;;;;;;;5026263;28;20044;-53
2022/05/06 11:59:56;;;;;;;3.55;2.78;;;;;;;;;;5034388;28;20037;-52
2022/05/06 12:02:22;;;;;;;4.35;2.90;;;;;;;;;;5033751;28;20474;-56
2022/05/06 12:04:48;;;;;;;4.28;2.80;;;;;;;;;;5033757;28;20087;-53
2022/05/06 12:07:14;;;;;;;7.18;2.53;;;;;;;;;;5033714;28;20026;-53
2022/05/06 12:09:44;;;;;;;6.57;2.50;;;;;;;;;;5032747;28;20682;-53
2022/05/06 12:12:11;;;;;;;3.13;2.42;;;;;;;;;;5033892;28;20108;-53
2022/05/06 12:14:40;;;;;;;5.03;2.70;;;;;;;;;;5032679;28;20049;-50
2022/05/06 12:17:10;;;;;;;3.25;2.50;;;;;;;;;;5033343;28;20418;-53
2022/05/06 12:19:39;;;;;;;3.70;2.58;;;;;;;;;;5031666;28;20393;-53
2022/05/06 12:22:06;;;;;;;2.25;2.05;;;;;;;;;;5031135;28;20033;-50
2022/05/06 12:24:50;;;;;;;4.28;2.38;;;;;;;;;;5033021;28;20061;-51
2022/05/06 12:27:39;;;;;;;2.88;2.47;;;;;;;;;;5027315;28;20450;-48
2022/05/06 12:30:16;;;;;;;4.15;2.50;;;;;;;;;;5033743;28;20418;-50
2022/05/06 12:32:42;;;;;;;2.75;2.15;;;;;;;;;;5032627;28;20044;-51
2022/05/06 12:35:09;;;;;;;3.17;2.35;;;;;;;;;;5033830;28;20030;-51
2022/05/06 12:37:35;;;;;;;4.90;2.33;;;;;;;;;;5032680;28;20030;-49
2022/05/06 12:40:01;;;;;;;2.47;2.28;;;;;;;;;;5033226;28;20038;-49
2022/05/06 12:42:28;;;;;;;3.20;2.60;;;;;;;;;;5032850;28;20116;-52
2022/05/06 12:44:54;;;;;;;4.10;2.38;;;;;;;;;;5033655;28;20061;-49
2022/05/06 12:50:06;;;;;;;4.63;2.80;;;;;;;;;;5030078;28;20155;-50
2022/05/06 12:52:33;;;;;;;3.17;2.45;;;;;;;;;;5032562;28;20025;-51
2022/05/06 12:54:59;;;;;;;6.38;2.63;;;;;;;;;;5031883;28;20120;-50
2022/05/06 12:57:25;;;;;;;4.55;2.45;;;;;;;;;;5030264;28;20363;-49
2022/05/06 12:59:51;;;;;;;5.18;2.80;;;;;;;;;;5034717;28;20024;-49
2022/05/06 13:02:18;;;;;;;3.60;2.83;;;;;;;;;;5034618;28;20030;-50
2022/05/06 13:04:44;;;;;;;3.63;2.80;;;;;;;;;;5032487;28;20036;-48
2022/05/06 13:07:10;;;;;;;4.00;2.47;;;;;;;;;;5033167;28;20378;-49
2022/05/06 13:09:36;;;;;;;3.28;2.40;;;;;;;;;;5031604;28;20041;-50
2022/05/06 13:12:02;;;;;;;5.07;2.45;;;;;;;;;;5032882;28;20029;-49
2022/05/06 13:14:28;;;;;;;5.13;2.65;;;;;;;;;;5032122;28;20022;-50
2022/05/06 13:16:54;;;;;;;3.22;2.40;;;;;;;;;;5032589;28;20028;-48
2022/05/06 13:19:20;;;;;;;9.35;2.85;;;;;;;;;;5033089;28;20454;-51
2022/05/06 13:21:46;;;;;;;5.47;2.40;;;;;;;;;;5032196;28;20025;-51
2022/05/06 13:24:12;;;;;;;6.18;2.78;;;;;;;;;;5026021;28;20052;-53
2022/05/06 13:26:38;;;;;;;3.47;2.92;;;;;;;;;;5031353;28;20021;-48
2022/05/06 13:29:05;;;;;;;4.47;3.30;;;;;;;;;;5034353;28;20025;-49
2022/05/06 13:31:31;;;;;;;4.10;2.83;;;;;;;;;;5031463;28;20029;-47
2022/05/06 13:33:57;;;;;;;3.10;2.33;;;;;;;;;;5032728;28;20025;-48
2022/05/06 13:36:23;;;;;;;6.28;3.20;;;;;;;;;;5032126;28;20027;-54
2022/05/06 13:38:49;;;;;;;5.57;3.38;;;;;;;;;;5031336;28;20045;-49
2022/05/06 13:41:16;;;;;;;5.07;2.67;;;;;;;;;;5032699;28;20029;-48
2022/05/06 13:43:42;;;;;;;4.32;2.83;;;;;;;;;;5031425;28;20033;-49
2022/05/06 13:46:08;;;;;;;7.05;2.83;;;;;;;;;;5032399;28;20040;-51
2022/05/06 13:48:36;;;;;;;3.83;2.58;;;;;;;;;;5031363;28;20018;-50
2022/05/06 13:51:03;;;;;;;4.50;2.80;;;;;;;;;;5032151;28;20036;-49
2022/05/06 13:53:29;;;;;;;4.25;2.22;;;;;;;;;;5020871;28;20033;-51
2022/05/06 14:01:24;;;;;;;3.55;3.15;;;;;;;;;;5031872;28;20456;-53
2022/05/06 14:03:50;;;;;;;4.68;2.50;;;;;;;;;;5032251;28;20025;-51
2022/05/06 14:06:16;;;;;;;4.57;2.80;;;;;;;;;;5032206;28;20481;-49
2022/05/06 14:08:43;;;;;;;3.42;2.75;;;;;;;;;;5030853;28;20486;-51
2022/05/06 14:11:09;;;;;;;2.85;2.45;;;;;;;;;;5031807;28;20151;-51
2022/05/06 14:13:35;;;;;;;5.22;2.72;;;;;;;;;;5031348;28;20057;-47
2022/05/06 14:16:01;;;;;;;16.27;3.22;;;;;;;;;;5032137;28;20028;-48
2022/05/06 14:18:28;;;;;;;8.63;3.00;;;;;;;;;;5031161;28;20029;-56
2022/05/06 14:20:54;;;;;;;4.90;3.03;;;;;;;;;;5031475;28;20100;-49
2022/05/06 14:23:21;;;;;;;7.28;3.03;;;;;;;;;;5031547;28;20534;-52
2022/05/06 14:25:47;;;;;;;8.95;3.25;;;;;;;;;;5025375;28;20025;-49
2022/05/06 14:28:13;;;;;;;6.90;3.30;;;;;;;;;;5031836;28;20025;-53
2022/05/06 14:30:41;;;;;;;11.18;2.55;;;;;;;;;;5030606;28;20026;-54
2022/05/06 14:33:08;;;;;;;10.30;2.80;;;;;;;;;;5031777;28;20029;-53
2022/05/06 14:35:34;;;;;;;7.68;3.03;;;;;;;;;;5030992;28;20525;-54
2022/05/06 14:38:00;;;;;;;7.53;3.33;;;;;;;;;;5031802;28;20137;-50
2022/05/06 14:40:28;;;;;;;5.22;2.47;;;;;;;;;;5031624;28;20049;-58
2022/05/06 14:42:54;;;;;;;4.70;2.88;;;;;;;;;;5035471;28;20045;-49
2022/05/06 14:45:20;;;;;;;4.13;2.60;;;;;;;;;;5035797;28;20028;-52
2022/05/06 14:47:47;;;;;;;5.88;2.83;;;;;;;;;;5034930;28;20133;-54
2022/05/06 14:50:13;;;;;;;5.68;2.95;;;;;;;;;;5031660;28;20026;-54
2022/05/06 14:52:38;;;;;;;5.85;3.08;;;;;;;;;;5032625;28;20036;-54
2022/05/06 14:55:05;;;;;;;9.05;3.00;;;;;;;;;;5036203;28;20458;-55
2022/05/06 14:57:32;;;;;;;3.55;2.65;;;;;;;;;;5026361;28;20033;-50
2022/05/06 14:59:58;;;;;;;5.93;3.00;;;;;;;;;;5027543;28;20018;-54
2022/05/06 15:02:24;;;;;;;4.18;2.50;;;;;;;;;;5034713;28;20036;-54
2022/05/06 15:04:50;;;;;;;5.28;2.85;;;;;;;;;;5030786;28;20109;-56
2022/05/06 15:07:16;;;;;;;3.83;2.85;;;;;;;;;;5021751;28;20021;-55
2022/05/06 15:09:42;;;;;;;6.20;2.60;;;;;;;;;;5034353;28;20021;-56
2022/05/06 15:12:08;;;;;;;4.80;2.40;;;;;;;;;;5035221;28;20124;-55
2022/05/06 15:14:34;;;;;;;13.88;3.92;;;;;;;;;;5017642;28;20493;-54
2022/05/06 15:17:04;;;;;;;3.38;2.67;;;;;;;;;;5035044;28;20030;-55
2022/05/06 15:19:32;;;;;;;4.75;3.03;;;;;;;;;;5026436;28;20018;-57
2022/05/06 15:22:01;;;;;;;3.92;3.00;;;;;;;;;;5026944;28;20040;-53
2022/05/06 15:24:30;;;;;;;3.92;3.00;;;;;;;;;;5026149;28;20052;-53
2022/05/06 15:26:57;;;;;;;4.03;2.85;;;;;;;;;;5028649;28;20073;-54
2022/05/06 15:29:23;;;;;;;3.45;3.10;;;;;;;;;;5021185;28;20045;-50
2022/05/06 15:31:49;;;;;;;4.70;2.72;;;;;;;;;;5024831;28;20088;-52
2022/05/06 15:34:15;;;;;;;6.85;3.30;;;;;;;;;;5020570;28;20041;-53